sensor_id;sensor_type;location;lat;lon;timestamp;P1;durP1;ratioP1;P2;durP2;ratioP2
21697;SDS011;11010;49.548;11.926;2022-07-22T00:00:58;12.63;;;7.15;;
21697;SDS011;11010;49.548;11.926;2022-07-22T00:03:25;13.43;;;7.57;;
21697;SDS011;11010;49.548;11.926;2022-07-22T00:05:52;13.23;;;7.45;;
21697;SDS011;11010;49.548;11.926;2022-07-22T00:08:19;13.35;;;7.35;;
21697;SDS011;11010;49.548;11.926;2022-07-22T00:10:47;11.57;;;7.22;;
21697;SDS011;11010;49.548;11.926;2022-07-22T00:13:14;12.57;;;7.60;;
21697;SDS011;11010;49.548;11.926;2022-07-22T00:15:42;13.40;;;7.60;;
21697;SDS011;11010;49.548;11.926;2022-07-22T00:18:09;13.23;;;7.53;;
21697;SDS011;11010;49.548;11.926;2022-07-22T00:20:36;12.38;;;7.05;;
21697;SDS011;11010;49.548;11.926;2022-07-22T00:23:03;13.00;;;7.65;;
21697;SDS011;11010;49.548;11.926;2022-07-22T00:25:31;13.43;;;7.47;;
21697;SDS011;11010;49.548;11.926;2022-07-22T00:27:58;13.07;;;7.53;;
21697;SDS011;11010;49.548;11.926;2022-07-22T00:30:26;15.30;;;7.32;;
21697;SDS011;11010;49.548;11.926;2022-07-22T00:32:53;13.55;;;8.02;;
21697;SDS011;11010;49.548;11.926;2022-07-22T00:35:21;12.90;;;7.47;;
21697;SDS011;11010;49.548;11.926;2022-07-22T00:37:48;13.40;;;7.47;;
21697;SDS011;11010;49.548;11.926;2022-07-22T00:40:15;13.52;;;7.43;;
21697;SDS011;11010;49.548;11.926;2022-07-22T00:42:43;13.38;;;7.47;;
21697;SDS011;11010;49.548;11.926;2022-07-22T00:45:10;12.57;;;7.35;;
21697;SDS011;11010;49.548;11.926;2022-07-22T00:47:38;13.23;;;7.55;;
21697;SDS011;11010;49.548;11.926;2022-07-22T00:50:07;12.00;;;7.22;;
21697;SDS011;11010;49.548;11.926;2022-07-22T00:52:34;14.18;;;7.93;;
21697;SDS011;11010;49.548;11.926;2022-07-22T00:55:03;12.73;;;7.47;;
21697;SDS011;11010;49.548;11.926;2022-07-22T00:57:31;12.70;;;7.07;;
21697;SDS011;11010;49.548;11.926;2022-07-22T00:59:59;14.05;;;7.13;;
21697;SDS011;11010;49.548;11.926;2022-07-22T01:02:26;12.40;;;6.95;;
21697;SDS011;11010;49.548;11.926;2022-07-22T01:04:54;13.10;;;7.60;;
21697;SDS011;11010;49.548;11.926;2022-07-22T01:07:22;12.48;;;7.60;;
21697;SDS011;11010;49.548;11.926;2022-07-22T01:09:49;13.20;;;7.85;;
21697;SDS011;11010;49.548;11.926;2022-07-22T01:12:17;12.82;;;7.03;;
21697;SDS011;11010;49.548;11.926;2022-07-22T01:14:44;13.52;;;7.88;;
21697;SDS011;11010;49.548;11.926;2022-07-22T01:17:11;13.65;;;6.97;;
21697;SDS011;11010;49.548;11.926;2022-07-22T01:19:38;12.85;;;7.30;;
21697;SDS011;11010;49.548;11.926;2022-07-22T01:22:06;12.85;;;6.97;;
21697;SDS011;11010;49.548;11.926;2022-07-22T01:24:34;12.85;;;7.38;;
21697;SDS011;11010;49.548;11.926;2022-07-22T01:27:01;12.05;;;6.82;;
21697;SDS011;11010;49.548;11.926;2022-07-22T01:29:29;12.70;;;7.57;;
21697;SDS011;11010;49.548;11.926;2022-07-22T01:31:56;14.15;;;8.00;;
21697;SDS011;11010;49.548;11.926;2022-07-22T01:34:24;12.23;;;6.25;;
21697;SDS011;11010;49.548;11.926;2022-07-22T01:36:51;14.48;;;7.20;;
21697;SDS011;11010;49.548;11.926;2022-07-22T01:39:19;12.98;;;6.85;;
21697;SDS011;11010;49.548;11.926;2022-07-22T01:41:46;12.52;;;7.20;;
21697;SDS011;11010;49.548;11.926;2022-07-22T01:44:14;14.70;;;7.63;;
21697;SDS011;11010;49.548;11.926;2022-07-22T01:46:41;13.10;;;7.07;;
21697;SDS011;11010;49.548;11.926;2022-07-22T01:49:09;13.57;;;7.45;;
21697;SDS011;11010;49.548;11.926;2022-07-22T01:51:38;13.02;;;7.55;;
21697;SDS011;11010;49.548;11.926;2022-07-22T01:54:05;12.82;;;6.97;;
21697;SDS011;11010;49.548;11.926;2022-07-22T01:56:33;13.48;;;7.38;;
21697;SDS011;11010;49.548;11.926;2022-07-22T01:59:00;13.27;;;7.07;;
21697;SDS011;11010;49.548;11.926;2022-07-22T02:01:29;13.00;;;7.57;;
21697;SDS011;11010;49.548;11.926;2022-07-22T02:03:56;13.00;;;7.40;;
21697;SDS011;11010;49.548;11.926;2022-07-22T02:06:23;12.57;;;7.30;;
21697;SDS011;11010;49.548;11.926;2022-07-22T02:08:52;12.68;;;7.32;;
21697;SDS011;11010;49.548;11.926;2022-07-22T02:11:40;12.52;;;6.97;;
21697;SDS011;11010;49.548;11.926;2022-07-22T02:14:09;12.90;;;7.03;;
21697;SDS011;11010;49.548;11.926;2022-07-22T02:16:37;13.55;;;7.20;;
21697;SDS011;11010;49.548;11.926;2022-07-22T02:19:04;12.55;;;6.88;;
21697;SDS011;11010;49.548;11.926;2022-07-22T02:21:32;14.15;;;7.40;;
21697;SDS011;11010;49.548;11.926;2022-07-22T02:23:59;12.20;;;6.88;;
21697;SDS011;11010;49.548;11.926;2022-07-22T02:26:26;11.75;;;6.97;;
21697;SDS011;11010;49.548;11.926;2022-07-22T02:28:54;12.43;;;7.30;;
21697;SDS011;11010;49.548;11.926;2022-07-22T02:31:22;13.50;;;6.70;;
21697;SDS011;11010;49.548;11.926;2022-07-22T02:33:50;12.13;;;7.13;;
21697;SDS011;11010;49.548;11.926;2022-07-22T02:36:17;13.63;;;7.68;;
21697;SDS011;11010;49.548;11.926;2022-07-22T02:38:46;13.85;;;7.47;;
21697;SDS011;11010;49.548;11.926;2022-07-22T02:41:14;12.65;;;6.65;;
21697;SDS011;11010;49.548;11.926;2022-07-22T02:43:48;12.55;;;7.45;;
21697;SDS011;11010;49.548;11.926;2022-07-22T02:46:15;12.48;;;7.05;;
21697;SDS011;11010;49.548;11.926;2022-07-22T02:48:42;11.90;;;7.00;;
21697;SDS011;11010;49.548;11.926;2022-07-22T02:51:12;12.93;;;6.82;;
21697;SDS011;11010;49.548;11.926;2022-07-22T02:53:40;12.55;;;7.03;;
21697;SDS011;11010;49.548;11.926;2022-07-22T02:56:07;12.32;;;6.85;;
21697;SDS011;11010;49.548;11.926;2022-07-22T02:58:34;12.75;;;7.25;;
21697;SDS011;11010;49.548;11.926;2022-07-22T03:01:01;12.73;;;6.82;;
21697;SDS011;11010;49.548;11.926;2022-07-22T03:03:35;14.52;;;7.18;;
21697;SDS011;11010;49.548;11.926;2022-07-22T03:06:02;13.02;;;6.90;;
21697;SDS011;11010;49.548;11.926;2022-07-22T03:08:36;12.05;;;6.82;;
21697;SDS011;11010;49.548;11.926;2022-07-22T03:11:04;12.55;;;7.00;;
21697;SDS011;11010;49.548;11.926;2022-07-22T03:13:32;11.43;;;6.47;;
21697;SDS011;11010;49.548;11.926;2022-07-22T03:16:00;12.00;;;6.70;;
21697;SDS011;11010;49.548;11.926;2022-07-22T03:18:27;13.52;;;7.30;;
21697;SDS011;11010;49.548;11.926;2022-07-22T03:20:55;12.70;;;7.07;;
21697;SDS011;11010;49.548;11.926;2022-07-22T03:23:22;13.57;;;7.25;;
21697;SDS011;11010;49.548;11.926;2022-07-22T03:25:50;12.60;;;6.90;;
21697;SDS011;11010;49.548;11.926;2022-07-22T03:28:17;11.63;;;6.78;;
21697;SDS011;11010;49.548;11.926;2022-07-22T03:30:44;12.48;;;6.65;;
21697;SDS011;11010;49.548;11.926;2022-07-22T03:33:13;14.45;;;7.10;;
21697;SDS011;11010;49.548;11.926;2022-07-22T03:35:41;11.95;;;6.70;;
21697;SDS011;11010;49.548;11.926;2022-07-22T03:38:08;13.80;;;7.78;;
21697;SDS011;11010;49.548;11.926;2022-07-22T03:40:37;13.57;;;7.22;;
21697;SDS011;11010;49.548;11.926;2022-07-22T03:43:04;12.65;;;6.78;;
21697;SDS011;11010;49.548;11.926;2022-07-22T03:45:32;13.35;;;7.43;;
21697;SDS011;11010;49.548;11.926;2022-07-22T03:47:59;12.80;;;7.30;;
21697;SDS011;11010;49.548;11.926;2022-07-22T03:50:33;12.15;;;7.10;;
21697;SDS011;11010;49.548;11.926;2022-07-22T03:53:00;11.95;;;6.72;;
21697;SDS011;11010;49.548;11.926;2022-07-22T03:55:28;13.98;;;7.10;;
21697;SDS011;11010;49.548;11.926;2022-07-22T03:57:56;11.98;;;6.40;;
21697;SDS011;11010;49.548;11.926;2022-07-22T04:00:27;12.52;;;7.03;;
21697;SDS011;11010;49.548;11.926;2022-07-22T04:02:56;11.82;;;7.15;;
21697;SDS011;11010;49.548;11.926;2022-07-22T04:05:46;12.05;;;6.68;;
21697;SDS011;11010;49.548;11.926;2022-07-22T04:08:19;11.73;;;6.65;;
21697;SDS011;11010;49.548;11.926;2022-07-22T04:10:46;12.35;;;6.88;;
21697;SDS011;11010;49.548;11.926;2022-07-22T04:13:13;13.35;;;7.10;;
21697;SDS011;11010;49.548;11.926;2022-07-22T04:15:48;11.65;;;6.70;;
21697;SDS011;11010;49.548;11.926;2022-07-22T04:18:15;14.00;;;6.55;;
21697;SDS011;11010;49.548;11.926;2022-07-22T04:20:45;13.40;;;6.80;;
21697;SDS011;11010;49.548;11.926;2022-07-22T04:23:27;12.35;;;6.93;;
21697;SDS011;11010;49.548;11.926;2022-07-22T04:26:09;13.27;;;6.55;;
21697;SDS011;11010;49.548;11.926;2022-07-22T04:28:36;13.15;;;6.80;;
21697;SDS011;11010;49.548;11.926;2022-07-22T04:31:04;12.93;;;7.22;;
21697;SDS011;11010;49.548;11.926;2022-07-22T04:33:33;11.93;;;6.72;;
21697;SDS011;11010;49.548;11.926;2022-07-22T04:36:00;14.10;;;7.63;;
21697;SDS011;11010;49.548;11.926;2022-07-22T04:38:27;13.23;;;7.13;;
21697;SDS011;11010;49.548;11.926;2022-07-22T04:41:01;14.50;;;7.68;;
21697;SDS011;11010;49.548;11.926;2022-07-22T04:43:29;12.85;;;7.65;;
21697;SDS011;11010;49.548;11.926;2022-07-22T04:45:56;11.73;;;6.90;;
21697;SDS011;11010;49.548;11.926;2022-07-22T04:48:27;13.75;;;7.50;;
21697;SDS011;11010;49.548;11.926;2022-07-22T04:50:58;13.02;;;7.25;;
21697;SDS011;11010;49.548;11.926;2022-07-22T04:53:28;14.95;;;7.80;;
21697;SDS011;11010;49.548;11.926;2022-07-22T04:56:16;13.60;;;7.68;;
21697;SDS011;11010;49.548;11.926;2022-07-22T04:58:44;12.93;;;7.40;;
21697;SDS011;11010;49.548;11.926;2022-07-22T05:01:11;12.48;;;7.45;;
21697;SDS011;11010;49.548;11.926;2022-07-22T05:03:41;12.52;;;7.40;;
21697;SDS011;11010;49.548;11.926;2022-07-22T05:06:09;13.18;;;7.40;;
21697;SDS011;11010;49.548;11.926;2022-07-22T05:08:39;14.20;;;7.57;;
21697;SDS011;11010;49.548;11.926;2022-07-22T05:11:07;12.68;;;7.53;;
21697;SDS011;11010;49.548;11.926;2022-07-22T05:13:34;13.52;;;7.30;;
21697;SDS011;11010;49.548;11.926;2022-07-22T05:16:02;14.10;;;8.02;;
21697;SDS011;11010;49.548;11.926;2022-07-22T05:18:34;13.82;;;7.55;;
21697;SDS011;11010;49.548;11.926;2022-07-22T05:21:02;12.93;;;7.65;;
21697;SDS011;11010;49.548;11.926;2022-07-22T05:23:30;13.25;;;8.35;;
21697;SDS011;11010;49.548;11.926;2022-07-22T05:25:59;13.82;;;8.02;;
21697;SDS011;11010;49.548;11.926;2022-07-22T05:28:26;15.38;;;7.85;;
21697;SDS011;11010;49.548;11.926;2022-07-22T05:30:53;14.55;;;8.35;;
21697;SDS011;11010;49.548;11.926;2022-07-22T05:33:24;15.48;;;8.30;;
21697;SDS011;11010;49.548;11.926;2022-07-22T05:36:02;15.15;;;8.57;;
21697;SDS011;11010;49.548;11.926;2022-07-22T05:38:44;16.45;;;8.50;;
21697;SDS011;11010;49.548;11.926;2022-07-22T05:41:11;15.57;;;8.43;;
21697;SDS011;11010;49.548;11.926;2022-07-22T05:43:39;15.73;;;8.88;;
21697;SDS011;11010;49.548;11.926;2022-07-22T05:46:07;16.92;;;9.20;;
21697;SDS011;11010;49.548;11.926;2022-07-22T05:48:35;16.52;;;9.05;;
21697;SDS011;11010;49.548;11.926;2022-07-22T05:51:02;16.65;;;8.90;;
21697;SDS011;11010;49.548;11.926;2022-07-22T05:53:31;18.42;;;9.48;;
21697;SDS011;11010;49.548;11.926;2022-07-22T05:55:58;15.45;;;8.75;;
21697;SDS011;11010;49.548;11.926;2022-07-22T05:58:34;17.02;;;9.20;;
21697;SDS011;11010;49.548;11.926;2022-07-22T06:01:01;15.75;;;8.57;;
21697;SDS011;11010;49.548;11.926;2022-07-22T06:03:30;14.57;;;8.25;;
21697;SDS011;11010;49.548;11.926;2022-07-22T06:05:58;13.98;;;8.13;;
21697;SDS011;11010;49.548;11.926;2022-07-22T06:08:27;15.32;;;8.50;;
21697;SDS011;11010;49.548;11.926;2022-07-22T06:10:56;16.05;;;8.27;;
21697;SDS011;11010;49.548;11.926;2022-07-22T06:13:24;15.32;;;8.55;;
21697;SDS011;11010;49.548;11.926;2022-07-22T06:15:52;15.10;;;7.43;;
21697;SDS011;11010;49.548;11.926;2022-07-22T06:18:19;13.43;;;7.05;;
21697;SDS011;11010;49.548;11.926;2022-07-22T06:20:46;16.17;;;7.65;;
21697;SDS011;11010;49.548;11.926;2022-07-22T06:23:14;16.08;;;8.40;;
21697;SDS011;11010;49.548;11.926;2022-07-22T06:25:41;13.73;;;7.70;;
21697;SDS011;11010;49.548;11.926;2022-07-22T06:28:31;15.77;;;7.25;;
21697;SDS011;11010;49.548;11.926;2022-07-22T06:30:59;13.40;;;7.05;;
21697;SDS011;11010;49.548;11.926;2022-07-22T06:33:27;14.55;;;7.97;;
21697;SDS011;11010;49.548;11.926;2022-07-22T06:35:55;15.20;;;7.00;;
21697;SDS011;11010;49.548;11.926;2022-07-22T06:38:24;14.73;;;7.22;;
21697;SDS011;11010;49.548;11.926;2022-07-22T06:41:14;14.45;;;6.95;;
21697;SDS011;11010;49.548;11.926;2022-07-22T06:44:04;13.02;;;6.72;;
21697;SDS011;11010;49.548;11.926;2022-07-22T06:46:44;15.38;;;7.03;;
21697;SDS011;11010;49.548;11.926;2022-07-22T06:49:15;13.98;;;6.60;;
21697;SDS011;11010;49.548;11.926;2022-07-22T06:51:44;13.05;;;7.28;;
21697;SDS011;11010;49.548;11.926;2022-07-22T06:54:11;16.25;;;6.93;;
21697;SDS011;11010;49.548;11.926;2022-07-22T06:56:39;12.82;;;6.38;;
21697;SDS011;11010;49.548;11.926;2022-07-22T06:59:10;13.00;;;6.63;;
21697;SDS011;11010;49.548;11.926;2022-07-22T07:01:37;15.68;;;7.43;;
21697;SDS011;11010;49.548;11.926;2022-07-22T07:04:05;13.18;;;6.57;;
21697;SDS011;11010;49.548;11.926;2022-07-22T07:06:33;14.98;;;6.82;;
21697;SDS011;11010;49.548;11.926;2022-07-22T07:09:13;14.02;;;7.20;;
21697;SDS011;11010;49.548;11.926;2022-07-22T07:11:45;13.45;;;6.63;;
21697;SDS011;11010;49.548;11.926;2022-07-22T07:14:29;12.27;;;6.60;;
21697;SDS011;11010;49.548;11.926;2022-07-22T07:16:57;12.82;;;6.32;;
21697;SDS011;11010;49.548;11.926;2022-07-22T07:19:24;13.13;;;6.20;;
21697;SDS011;11010;49.548;11.926;2022-07-22T07:21:51;13.48;;;6.85;;
21697;SDS011;11010;49.548;11.926;2022-07-22T07:24:18;13.32;;;6.70;;
21697;SDS011;11010;49.548;11.926;2022-07-22T07:26:46;11.07;;;5.95;;
21697;SDS011;11010;49.548;11.926;2022-07-22T07:29:14;12.88;;;6.40;;
21697;SDS011;11010;49.548;11.926;2022-07-22T07:31:47;12.82;;;6.80;;
21697;SDS011;11010;49.548;11.926;2022-07-22T07:34:14;12.25;;;6.25;;
21697;SDS011;11010;49.548;11.926;2022-07-22T07:36:42;12.57;;;6.68;;
21697;SDS011;11010;49.548;11.926;2022-07-22T07:39:12;13.38;;;6.18;;
21697;SDS011;11010;49.548;11.926;2022-07-22T07:41:39;16.15;;;6.63;;
21697;SDS011;11010;49.548;11.926;2022-07-22T07:44:09;13.40;;;6.50;;
21697;SDS011;11010;49.548;11.926;2022-07-22T07:46:36;12.65;;;6.28;;
21697;SDS011;11010;49.548;11.926;2022-07-22T07:49:04;12.75;;;7.15;;
21697;SDS011;11010;49.548;11.926;2022-07-22T07:51:31;12.13;;;6.28;;
21697;SDS011;11010;49.548;11.926;2022-07-22T07:53:59;12.77;;;6.50;;
21697;SDS011;11010;49.548;11.926;2022-07-22T07:56:26;13.70;;;6.78;;
21697;SDS011;11010;49.548;11.926;2022-07-22T07:58:54;12.40;;;6.45;;
21697;SDS011;11010;49.548;11.926;2022-07-22T08:01:41;11.18;;;5.72;;
21697;SDS011;11010;49.548;11.926;2022-07-22T08:04:28;11.73;;;5.93;;
21697;SDS011;11010;49.548;11.926;2022-07-22T08:07:06;11.75;;;5.85;;
21697;SDS011;11010;49.548;11.926;2022-07-22T08:09:36;13.27;;;6.32;;
21697;SDS011;11010;49.548;11.926;2022-07-22T08:12:10;10.95;;;5.43;;
21697;SDS011;11010;49.548;11.926;2022-07-22T08:14:57;11.98;;;6.15;;
21697;SDS011;11010;49.548;11.926;2022-07-22T08:17:57;12.15;;;5.90;;
21697;SDS011;11010;49.548;11.926;2022-07-22T08:20:25;11.25;;;5.63;;
21697;SDS011;11010;49.548;11.926;2022-07-22T08:22:53;12.45;;;6.40;;
21697;SDS011;11010;49.548;11.926;2022-07-22T08:25:23;11.50;;;5.78;;
21697;SDS011;11010;49.548;11.926;2022-07-22T08:27:50;11.95;;;5.90;;
21697;SDS011;11010;49.548;11.926;2022-07-22T08:30:18;11.98;;;5.80;;
21697;SDS011;11010;49.548;11.926;2022-07-22T08:32:47;13.60;;;6.40;;
21697;SDS011;11010;49.548;11.926;2022-07-22T08:35:15;11.82;;;6.13;;
21697;SDS011;11010;49.548;11.926;2022-07-22T08:37:42;11.05;;;5.57;;
21697;SDS011;11010;49.548;11.926;2022-07-22T08:40:12;13.82;;;6.35;;
21697;SDS011;11010;49.548;11.926;2022-07-22T08:42:41;12.73;;;6.30;;
21697;SDS011;11010;49.548;11.926;2022-07-22T08:45:09;10.63;;;5.55;;
21697;SDS011;11010;49.548;11.926;2022-07-22T08:47:46;12.13;;;5.40;;
21697;SDS011;11010;49.548;11.926;2022-07-22T08:50:21;13.82;;;5.50;;
21697;SDS011;11010;49.548;11.926;2022-07-22T08:52:53;12.63;;;6.05;;
21697;SDS011;11010;49.548;11.926;2022-07-22T08:55:21;12.52;;;5.57;;
21697;SDS011;11010;49.548;11.926;2022-07-22T08:57:48;11.75;;;5.32;;
21697;SDS011;11010;49.548;11.926;2022-07-22T09:00:18;11.73;;;5.55;;
21697;SDS011;11010;49.548;11.926;2022-07-22T09:02:49;10.63;;;4.78;;
21697;SDS011;11010;49.548;11.926;2022-07-22T09:05:17;11.13;;;5.10;;
21697;SDS011;11010;49.548;11.926;2022-07-22T09:08:06;11.75;;;5.72;;
21697;SDS011;11010;49.548;11.926;2022-07-22T09:11:00;12.35;;;5.55;;
21697;SDS011;11010;49.548;11.926;2022-07-22T09:14:00;11.35;;;4.88;;
21697;SDS011;11010;49.548;11.926;2022-07-22T09:17:06;11.00;;;5.03;;
21697;SDS011;11010;49.548;11.926;2022-07-22T09:19:40;12.43;;;4.80;;
21697;SDS011;11010;49.548;11.926;2022-07-22T09:22:32;10.23;;;4.97;;
21697;SDS011;11010;49.548;11.926;2022-07-22T09:28:24;11.85;;;5.07;;
21697;SDS011;11010;49.548;11.926;2022-07-22T09:31:22;13.38;;;5.30;;
21697;SDS011;11010;49.548;11.926;2022-07-22T09:34:02;10.95;;;5.43;;
21697;SDS011;11010;49.548;11.926;2022-07-22T09:36:31;11.82;;;5.18;;
21697;SDS011;11010;49.548;11.926;2022-07-22T09:38:58;11.38;;;4.82;;
21697;SDS011;11010;49.548;11.926;2022-07-22T09:41:27;10.50;;;5.32;;
21697;SDS011;11010;49.548;11.926;2022-07-22T09:43:55;10.38;;;5.18;;
21697;SDS011;11010;49.548;11.926;2022-07-22T09:46:34;10.10;;;5.03;;
21697;SDS011;11010;49.548;11.926;2022-07-22T09:49:41;11.43;;;5.25;;
21697;SDS011;11010;49.548;11.926;2022-07-22T09:52:37;11.70;;;5.07;;
21697;SDS011;11010;49.548;11.926;2022-07-22T09:55:13;12.20;;;5.40;;
21697;SDS011;11010;49.548;11.926;2022-07-22T09:57:43;13.70;;;5.47;;
21697;SDS011;11010;49.548;11.926;2022-07-22T10:00:11;11.25;;;5.53;;
21697;SDS011;11010;49.548;11.926;2022-07-22T10:05:13;10.63;;;5.47;;
21697;SDS011;11010;49.548;11.926;2022-07-22T10:07:42;11.73;;;5.70;;
21697;SDS011;11010;49.548;11.926;2022-07-22T10:10:11;12.88;;;5.25;;
21697;SDS011;11010;49.548;11.926;2022-07-22T10:12:43;12.55;;;5.43;;
21697;SDS011;11010;49.548;11.926;2022-07-22T10:15:14;11.05;;;5.13;;
21697;SDS011;11010;49.548;11.926;2022-07-22T10:17:43;11.07;;;5.18;;
21697;SDS011;11010;49.548;11.926;2022-07-22T10:20:18;9.93;;;4.97;;
21697;SDS011;11010;49.548;11.926;2022-07-22T10:22:51;10.80;;;5.13;;
21697;SDS011;11010;49.548;11.926;2022-07-22T10:25:28;10.30;;;5.22;;
21697;SDS011;11010;49.548;11.926;2022-07-22T10:28:01;11.13;;;5.38;;
21697;SDS011;11010;49.548;11.926;2022-07-22T10:30:32;12.73;;;5.65;;
21697;SDS011;11010;49.548;11.926;2022-07-22T10:35:38;10.85;;;5.55;;
21697;SDS011;11010;49.548;11.926;2022-07-22T10:38:28;10.30;;;4.90;;
21697;SDS011;11010;49.548;11.926;2022-07-22T10:41:00;11.43;;;5.22;;
21697;SDS011;11010;49.548;11.926;2022-07-22T10:43:30;10.90;;;5.05;;
21697;SDS011;11010;49.548;11.926;2022-07-22T10:45:59;13.68;;;5.30;;
21697;SDS011;11010;49.548;11.926;2022-07-22T10:51:19;10.43;;;4.78;;
21697;SDS011;11010;49.548;11.926;2022-07-22T10:53:57;11.15;;;4.65;;
21697;SDS011;11010;49.548;11.926;2022-07-22T10:56:32;10.13;;;5.00;;
21697;SDS011;11010;49.548;11.926;2022-07-22T11:01:45;10.65;;;5.10;;
21697;SDS011;11010;49.548;11.926;2022-07-22T11:04:18;9.27;;;4.65;;
21697;SDS011;11010;49.548;11.926;2022-07-22T11:06:51;10.25;;;5.03;;
21697;SDS011;11010;49.548;11.926;2022-07-22T11:09:21;11.95;;;5.00;;
21697;SDS011;11010;49.548;11.926;2022-07-22T11:11:59;10.25;;;5.00;;
21697;SDS011;11010;49.548;11.926;2022-07-22T11:14:27;9.32;;;4.80;;
21697;SDS011;11010;49.548;11.926;2022-07-22T11:16:58;10.57;;;5.18;;
21697;SDS011;11010;49.548;11.926;2022-07-22T11:19:30;9.32;;;4.43;;
21697;SDS011;11010;49.548;11.926;2022-07-22T11:21:59;10.52;;;4.90;;
21697;SDS011;11010;49.548;11.926;2022-07-22T11:24:35;10.18;;;4.68;;
21697;SDS011;11010;49.548;11.926;2022-07-22T11:27:03;9.52;;;4.90;;
21697;SDS011;11010;49.548;11.926;2022-07-22T11:29:38;11.27;;;4.97;;
21697;SDS011;11010;49.548;11.926;2022-07-22T11:32:10;10.93;;;5.13;;
21697;SDS011;11010;49.548;11.926;2022-07-22T11:34:40;11.13;;;5.07;;
21697;SDS011;11010;49.548;11.926;2022-07-22T11:37:17;10.68;;;4.30;;
21697;SDS011;11010;49.548;11.926;2022-07-22T11:39:45;10.30;;;4.88;;
21697;SDS011;11010;49.548;11.926;2022-07-22T11:42:13;10.10;;;4.63;;
21697;SDS011;11010;49.548;11.926;2022-07-22T11:44:40;9.52;;;4.70;;
21697;SDS011;11010;49.548;11.926;2022-07-22T11:47:08;11.32;;;4.72;;
21697;SDS011;11010;49.548;11.926;2022-07-22T11:49:37;10.18;;;4.55;;
21697;SDS011;11010;49.548;11.926;2022-07-22T11:52:06;9.63;;;4.28;;
21697;SDS011;11010;49.548;11.926;2022-07-22T11:54:39;8.82;;;4.35;;
21697;SDS011;11010;49.548;11.926;2022-07-22T11:57:09;11.57;;;4.68;;
21697;SDS011;11010;49.548;11.926;2022-07-22T11:59:36;13.05;;;5.22;;
21697;SDS011;11010;49.548;11.926;2022-07-22T12:02:04;9.27;;;4.65;;
21697;SDS011;11010;49.548;11.926;2022-07-22T12:04:34;9.38;;;4.28;;
21697;SDS011;11010;49.548;11.926;2022-07-22T12:07:02;10.43;;;4.50;;
21697;SDS011;11010;49.548;11.926;2022-07-22T12:09:33;10.65;;;4.35;;
21697;SDS011;11010;49.548;11.926;2022-07-22T12:12:02;10.35;;;4.55;;
21697;SDS011;11010;49.548;11.926;2022-07-22T12:14:31;10.80;;;4.72;;
21697;SDS011;11010;49.548;11.926;2022-07-22T12:17:03;9.60;;;4.40;;
21697;SDS011;11010;49.548;11.926;2022-07-22T12:19:38;11.07;;;4.45;;
21697;SDS011;11010;49.548;11.926;2022-07-22T12:22:07;9.63;;;4.40;;
21697;SDS011;11010;49.548;11.926;2022-07-22T12:24:45;10.52;;;4.50;;
21697;SDS011;11010;49.548;11.926;2022-07-22T12:27:23;10.07;;;4.43;;
21697;SDS011;11010;49.548;11.926;2022-07-22T12:29:50;9.43;;;4.15;;
21697;SDS011;11010;49.548;11.926;2022-07-22T12:32:24;9.57;;;4.40;;
21697;SDS011;11010;49.548;11.926;2022-07-22T12:35:00;8.90;;;4.20;;
21697;SDS011;11010;49.548;11.926;2022-07-22T12:37:33;9.15;;;3.80;;
21697;SDS011;11010;49.548;11.926;2022-07-22T12:40:11;9.48;;;4.43;;
21697;SDS011;11010;49.548;11.926;2022-07-22T12:43:02;9.88;;;4.22;;
21697;SDS011;11010;49.548;11.926;2022-07-22T12:45:36;9.73;;;4.50;;
21697;SDS011;11010;49.548;11.926;2022-07-22T12:48:06;8.63;;;4.07;;
21697;SDS011;11010;49.548;11.926;2022-07-22T12:50:41;9.57;;;4.10;;
21697;SDS011;11010;49.548;11.926;2022-07-22T12:53:14;11.27;;;4.40;;
21697;SDS011;11010;49.548;11.926;2022-07-22T12:55:47;10.75;;;4.43;;
21697;SDS011;11010;49.548;11.926;2022-07-22T12:58:18;10.35;;;4.03;;
21697;SDS011;11010;49.548;11.926;2022-07-22T13:00:48;9.30;;;4.05;;
21697;SDS011;11010;49.548;11.926;2022-07-22T13:03:18;9.73;;;3.70;;
21697;SDS011;11010;49.548;11.926;2022-07-22T13:05:47;9.15;;;4.40;;
21697;SDS011;11010;49.548;11.926;2022-07-22T13:08:15;9.68;;;3.80;;
21697;SDS011;11010;49.548;11.926;2022-07-22T13:10:43;9.20;;;4.07;;
21697;SDS011;11010;49.548;11.926;2022-07-22T13:13:10;8.82;;;3.75;;
21697;SDS011;11010;49.548;11.926;2022-07-22T13:15:38;9.45;;;4.50;;
21697;SDS011;11010;49.548;11.926;2022-07-22T13:18:05;9.15;;;4.00;;
21697;SDS011;11010;49.548;11.926;2022-07-22T13:20:33;9.38;;;4.07;;
21697;SDS011;11010;49.548;11.926;2022-07-22T13:23:00;10.43;;;4.25;;
21697;SDS011;11010;49.548;11.926;2022-07-22T13:25:27;9.38;;;4.00;;
21697;SDS011;11010;49.548;11.926;2022-07-22T13:27:55;9.70;;;4.00;;
21697;SDS011;11010;49.548;11.926;2022-07-22T13:30:22;9.98;;;4.50;;
21697;SDS011;11010;49.548;11.926;2022-07-22T13:32:49;8.70;;;3.90;;
21697;SDS011;11010;49.548;11.926;2022-07-22T13:35:17;8.95;;;4.03;;
21697;SDS011;11010;49.548;11.926;2022-07-22T13:37:44;9.90;;;4.10;;
21697;SDS011;11010;49.548;11.926;2022-07-22T13:40:12;9.60;;;4.45;;
21697;SDS011;11010;49.548;11.926;2022-07-22T13:42:40;9.05;;;4.03;;
21697;SDS011;11010;49.548;11.926;2022-07-22T13:45:08;9.50;;;4.18;;
21697;SDS011;11010;49.548;11.926;2022-07-22T13:47:39;9.88;;;4.07;;
21697;SDS011;11010;49.548;11.926;2022-07-22T13:50:07;7.85;;;3.67;;
21697;SDS011;11010;49.548;11.926;2022-07-22T13:52:34;8.55;;;3.60;;
21697;SDS011;11010;49.548;11.926;2022-07-22T13:55:02;10.52;;;4.22;;
21697;SDS011;11010;49.548;11.926;2022-07-22T13:57:29;9.18;;;3.97;;
21697;SDS011;11010;49.548;11.926;2022-07-22T13:59:56;9.27;;;3.67;;
21697;SDS011;11010;49.548;11.926;2022-07-22T14:02:24;9.52;;;3.90;;
21697;SDS011;11010;49.548;11.926;2022-07-22T14:04:51;10.32;;;4.15;;
21697;SDS011;11010;49.548;11.926;2022-07-22T14:07:18;9.10;;;4.15;;
21697;SDS011;11010;49.548;11.926;2022-07-22T14:09:46;9.45;;;3.83;;
21697;SDS011;11010;49.548;11.926;2022-07-22T14:12:13;8.23;;;3.70;;
21697;SDS011;11010;49.548;11.926;2022-07-22T14:14:40;8.77;;;4.13;;
21697;SDS011;11010;49.548;11.926;2022-07-22T14:17:07;9.82;;;4.05;;
21697;SDS011;11010;49.548;11.926;2022-07-22T14:19:34;8.25;;;3.75;;
21697;SDS011;11010;49.548;11.926;2022-07-22T14:22:03;8.82;;;4.00;;
21697;SDS011;11010;49.548;11.926;2022-07-22T14:24:30;9.13;;;3.95;;
21697;SDS011;11010;49.548;11.926;2022-07-22T14:26:57;9.95;;;3.70;;
21697;SDS011;11010;49.548;11.926;2022-07-22T14:29:25;9.40;;;3.67;;
21697;SDS011;11010;49.548;11.926;2022-07-22T14:31:52;8.43;;;3.50;;
21697;SDS011;11010;49.548;11.926;2022-07-22T14:34:19;10.05;;;3.88;;
21697;SDS011;11010;49.548;11.926;2022-07-22T14:36:47;8.02;;;3.67;;
21697;SDS011;11010;49.548;11.926;2022-07-22T14:39:14;8.63;;;3.72;;
21697;SDS011;11010;49.548;11.926;2022-07-22T14:41:42;9.50;;;3.40;;
21697;SDS011;11010;49.548;11.926;2022-07-22T14:44:12;10.60;;;3.78;;
21697;SDS011;11010;49.548;11.926;2022-07-22T14:46:40;9.15;;;3.80;;
21697;SDS011;11010;49.548;11.926;2022-07-22T14:49:07;10.38;;;4.13;;
21697;SDS011;11010;49.548;11.926;2022-07-22T14:51:41;10.05;;;3.70;;
21697;SDS011;11010;49.548;11.926;2022-07-22T14:54:09;9.90;;;3.78;;
21697;SDS011;11010;49.548;11.926;2022-07-22T14:56:38;9.80;;;3.50;;